Terminal Aerodrome Forecast
Issued by NWS Wilmington, OH

Current Version | Previous Version | Graphics & Text | Print | Product List | Glossary On
Versions: 1 2 3 4 5 6 7 8 9 10 11 12 13 14 15 16 17 18 19 20 21 22 23 24 25 26 27 28 29 30 31
000
FTUS41 KILN 220500
TAFILN
TAF
KILN 220531Z 2206/2306 36008KT P6SM OVC035
     FM220700 36007KT P6SM OVC015
     FM221500 35008KT P6SM OVC025
     FM222100 35010KT P6SM SCT035
     FM230100 01004KT P6SM SKC=

USA.gov is the U.S. government's official web portal to all federal, state and local government web resources and services.